sensor_id;sensor_type;location;lat;lon;timestamp;temperature;humidity
9527;DHT22;4802;51.494;6.770;2022-08-19T00:02:17;21.60;1.00
9527;DHT22;4802;51.494;6.770;2022-08-19T00:04:46;21.50;1.00
9527;DHT22;4802;51.494;6.770;2022-08-19T00:07:20;21.50;1.00
9527;DHT22;4802;51.494;6.770;2022-08-19T00:09:49;21.50;1.00
9527;DHT22;4802;51.494;6.770;2022-08-19T00:12:18;21.50;1.00
9527;DHT22;4802;51.494;6.770;2022-08-19T00:14:49;21.50;1.00
9527;DHT22;4802;51.494;6.770;2022-08-19T00:17:17;21.80;1.00
9527;DHT22;4802;51.494;6.770;2022-08-19T00:19:46;21.50;1.00
9527;DHT22;4802;51.494;6.770;2022-08-19T00:22:18;21.40;1.00
9527;DHT22;4802;51.494;6.770;2022-08-19T00:24:50;21.40;1.00
9527;DHT22;4802;51.494;6.770;2022-08-19T00:27:30;21.40;1.00
9527;DHT22;4802;51.494;6.770;2022-08-19T00:30:01;21.30;1.00
9527;DHT22;4802;51.494;6.770;2022-08-19T00:32:30;21.30;1.00
9527;DHT22;4802;51.494;6.770;2022-08-19T00:35:00;21.30;1.00
9527;DHT22;4802;51.494;6.770;2022-08-19T00:37:29;21.20;1.00
9527;DHT22;4802;51.494;6.770;2022-08-19T00:40:09;21.20;1.00
9527;DHT22;4802;51.494;6.770;2022-08-19T00:42:38;21.20;1.00
9527;DHT22;4802;51.494;6.770;2022-08-19T00:45:13;21.20;1.00
9527;DHT22;4802;51.494;6.770;2022-08-19T00:47:52;21.50;1.00
9527;DHT22;4802;51.494;6.770;2022-08-19T00:50:21;21.20;1.00
9527;DHT22;4802;51.494;6.770;2022-08-19T00:52:51;21.10;1.00
9527;DHT22;4802;51.494;6.770;2022-08-19T00:55:22;21.10;1.00
9527;DHT22;4802;51.494;6.770;2022-08-19T00:57:56;20.60;1.00
9527;DHT22;4802;51.494;6.770;2022-08-19T01:00:33;21.00;1.00
9527;DHT22;4802;51.494;6.770;2022-08-19T01:03:04;20.60;1.00
9527;DHT22;4802;51.494;6.770;2022-08-19T01:05:34;21.10;1.00
9527;DHT22;4802;51.494;6.770;2022-08-19T01:08:06;20.90;1.00
9527;DHT22;4802;51.494;6.770;2022-08-19T01:10:39;20.90;1.00
9527;DHT22;4802;51.494;6.770;2022-08-19T01:13:09;21.20;1.00
9527;DHT22;4802;51.494;6.770;2022-08-19T01:15:43;20.90;1.00
9527;DHT22;4802;51.494;6.770;2022-08-19T01:18:15;20.90;1.00
9527;DHT22;4802;51.494;6.770;2022-08-19T01:20:45;20.90;1.00
9527;DHT22;4802;51.494;6.770;2022-08-19T01:23:16;20.80;1.00
9527;DHT22;4802;51.494;6.770;2022-08-19T01:25:48;20.70;1.00
9527;DHT22;4802;51.494;6.770;2022-08-19T01:28:27;20.80;1.00
9527;DHT22;4802;51.494;6.770;2022-08-19T01:31:13;20.80;1.00
9527;DHT22;4802;51.494;6.770;2022-08-19T01:33:56;20.70;1.00
9527;DHT22;4802;51.494;6.770;2022-08-19T01:36:29;20.70;1.00
9527;DHT22;4802;51.494;6.770;2022-08-19T01:39:07;20.70;1.00
9527;DHT22;4802;51.494;6.770;2022-08-19T01:41:37;20.40;1.00
9527;DHT22;4802;51.494;6.770;2022-08-19T01:44:07;20.70;1.00
9527;DHT22;4802;51.494;6.770;2022-08-19T01:46:47;20.70;1.00
9527;DHT22;4802;51.494;6.770;2022-08-19T01:49:18;20.70;1.00
9527;DHT22;4802;51.494;6.770;2022-08-19T01:51:47;20.60;1.00
9527;DHT22;4802;51.494;6.770;2022-08-19T01:54:20;20.70;1.00
9527;DHT22;4802;51.494;6.770;2022-08-19T01:56:59;20.50;1.00
9527;DHT22;4802;51.494;6.770;2022-08-19T01:59:30;20.60;1.00
9527;DHT22;4802;51.494;6.770;2022-08-19T02:02:04;20.50;1.00
9527;DHT22;4802;51.494;6.770;2022-08-19T02:04:35;20.40;1.00
9527;DHT22;4802;51.494;6.770;2022-08-19T02:07:09;20.40;1.00
9527;DHT22;4802;51.494;6.770;2022-08-19T02:09:39;20.40;1.00
9527;DHT22;4802;51.494;6.770;2022-08-19T02:12:08;20.40;1.00
9527;DHT22;4802;51.494;6.770;2022-08-19T02:14:37;20.40;1.00
9527;DHT22;4802;51.494;6.770;2022-08-19T02:17:06;20.40;1.00
9527;DHT22;4802;51.494;6.770;2022-08-19T02:19:35;20.70;1.00
9527;DHT22;4802;51.494;6.770;2022-08-19T02:22:07;20.40;1.00
9527;DHT22;4802;51.494;6.770;2022-08-19T02:24:36;20.30;1.00
9527;DHT22;4802;51.494;6.770;2022-08-19T02:27:07;20.30;1.00
9527;DHT22;4802;51.494;6.770;2022-08-19T02:29:36;20.30;1.00
9527;DHT22;4802;51.494;6.770;2022-08-19T02:32:06;20.20;1.00
9527;DHT22;4802;51.494;6.770;2022-08-19T02:34:35;20.40;1.00
9527;DHT22;4802;51.494;6.770;2022-08-19T02:37:04;20.30;1.00
9527;DHT22;4802;51.494;6.770;2022-08-19T02:39:32;20.20;1.00
9527;DHT22;4802;51.494;6.770;2022-08-19T02:42:00;20.20;1.00
9527;DHT22;4802;51.494;6.770;2022-08-19T02:44:31;20.30;1.00
9527;DHT22;4802;51.494;6.770;2022-08-19T02:47:00;20.20;6.40
9527;DHT22;4802;51.494;6.770;2022-08-19T02:49:31;20.10;12.30
9527;DHT22;4802;51.494;6.770;2022-08-19T02:52:01;20.20;17.00
9527;DHT22;4802;51.494;6.770;2022-08-19T02:54:29;20.20;1.00
9527;DHT22;4802;51.494;6.770;2022-08-19T02:57:00;20.30;1.00
9527;DHT22;4802;51.494;6.770;2022-08-19T02:59:31;20.30;1.00
9527;DHT22;4802;51.494;6.770;2022-08-19T03:02:00;20.20;1.00
9527;DHT22;4802;51.494;6.770;2022-08-19T03:04:30;20.30;1.00
9527;DHT22;4802;51.494;6.770;2022-08-19T03:06:58;20.20;1.00
9527;DHT22;4802;51.494;6.770;2022-08-19T03:09:37;20.20;1.00
9527;DHT22;4802;51.494;6.770;2022-08-19T03:12:09;20.20;1.00
9527;DHT22;4802;51.494;6.770;2022-08-19T03:14:39;20.20;1.00
9527;DHT22;4802;51.494;6.770;2022-08-19T03:17:08;20.10;1.50
9527;DHT22;4802;51.494;6.770;2022-08-19T03:19:38;20.10;5.80
9527;DHT22;4802;51.494;6.770;2022-08-19T03:22:07;19.70;1.00
9527;DHT22;4802;51.494;6.770;2022-08-19T03:24:36;20.00;17.90
9527;DHT22;4802;51.494;6.770;2022-08-19T03:27:06;20.00;19.20
9527;DHT22;4802;51.494;6.770;2022-08-19T03:29:36;20.00;22.40
9527;DHT22;4802;51.494;6.770;2022-08-19T03:32:11;20.00;19.30
9527;DHT22;4802;51.494;6.770;2022-08-19T03:35:00;20.00;27.60
9527;DHT22;4802;51.494;6.770;2022-08-19T03:37:29;19.90;38.80
9527;DHT22;4802;51.494;6.770;2022-08-19T03:39:58;19.90;38.00
9527;DHT22;4802;51.494;6.770;2022-08-19T03:42:27;20.00;27.50
9527;DHT22;4802;51.494;6.770;2022-08-19T03:45:15;20.40;24.80
9527;DHT22;4802;51.494;6.770;2022-08-19T03:47:46;20.10;12.70
9527;DHT22;4802;51.494;6.770;2022-08-19T03:50:16;20.00;20.20
9527;DHT22;4802;51.494;6.770;2022-08-19T03:52:48;20.00;21.20
9527;DHT22;4802;51.494;6.770;2022-08-19T03:55:19;19.90;40.80
9527;DHT22;4802;51.494;6.770;2022-08-19T03:57:49;19.80;84.10
9527;DHT22;4802;51.494;6.770;2022-08-19T04:00:27;19.80;65.20
9527;DHT22;4802;51.494;6.770;2022-08-19T04:02:58;19.80;74.60
9527;DHT22;4802;51.494;6.770;2022-08-19T04:05:30;19.70;86.00
9527;DHT22;4802;51.494;6.770;2022-08-19T04:08:00;19.80;84.10
9527;DHT22;4802;51.494;6.770;2022-08-19T04:10:39;19.80;83.00
9527;DHT22;4802;51.494;6.770;2022-08-19T04:13:09;19.70;91.90
9527;DHT22;4802;51.494;6.770;2022-08-19T04:15:40;19.70;96.80
9527;DHT22;4802;51.494;6.770;2022-08-19T04:18:10;19.70;97.00
9527;DHT22;4802;51.494;6.770;2022-08-19T04:20:41;19.70;93.80
9527;DHT22;4802;51.494;6.770;2022-08-19T04:23:15;19.60;99.90
9527;DHT22;4802;51.494;6.770;2022-08-19T04:25:48;19.50;99.90
9527;DHT22;4802;51.494;6.770;2022-08-19T04:28:20;19.30;99.90
9527;DHT22;4802;51.494;6.770;2022-08-19T04:30:52;19.60;99.90
9527;DHT22;4802;51.494;6.770;2022-08-19T04:33:25;19.60;99.90
9527;DHT22;4802;51.494;6.770;2022-08-19T04:35:55;19.60;99.90
9527;DHT22;4802;51.494;6.770;2022-08-19T04:38:25;19.50;99.90
9527;DHT22;4802;51.494;6.770;2022-08-19T04:40:54;19.40;99.90
9527;DHT22;4802;51.494;6.770;2022-08-19T04:43:40;19.40;99.90
9527;DHT22;4802;51.494;6.770;2022-08-19T04:46:12;19.40;99.90
9527;DHT22;4802;51.494;6.770;2022-08-19T04:49:05;19.40;99.90
9527;DHT22;4802;51.494;6.770;2022-08-19T04:51:40;19.40;99.90
9527;DHT22;4802;51.494;6.770;2022-08-19T04:54:10;19.40;99.90
9527;DHT22;4802;51.494;6.770;2022-08-19T04:56:40;19.40;99.90
9527;DHT22;4802;51.494;6.770;2022-08-19T04:59:09;19.50;99.90
9527;DHT22;4802;51.494;6.770;2022-08-19T05:01:39;19.60;99.90
9527;DHT22;4802;51.494;6.770;2022-08-19T05:04:18;19.60;99.90
9527;DHT22;4802;51.494;6.770;2022-08-19T05:06:49;19.70;99.90
9527;DHT22;4802;51.494;6.770;2022-08-19T05:09:27;19.70;99.90
9527;DHT22;4802;51.494;6.770;2022-08-19T05:12:16;19.80;99.90
9527;DHT22;4802;51.494;6.770;2022-08-19T05:14:46;19.90;99.90
9527;DHT22;4802;51.494;6.770;2022-08-19T05:17:17;19.80;99.90
9527;DHT22;4802;51.494;6.770;2022-08-19T05:20:06;20.10;99.20
9527;DHT22;4802;51.494;6.770;2022-08-19T05:22:53;20.20;55.50
9527;DHT22;4802;51.494;6.770;2022-08-19T05:25:22;20.40;38.50
9527;DHT22;4802;51.494;6.770;2022-08-19T05:27:54;20.40;22.90
9527;DHT22;4802;51.494;6.770;2022-08-19T05:30:23;20.50;27.30
9527;DHT22;4802;51.494;6.770;2022-08-19T05:33:12;20.70;29.00
9527;DHT22;4802;51.494;6.770;2022-08-19T05:35:47;21.10;9.60
9527;DHT22;4802;51.494;6.770;2022-08-19T05:38:17;21.70;1.00
9527;DHT22;4802;51.494;6.770;2022-08-19T05:40:46;22.30;1.00
9527;DHT22;4802;51.494;6.770;2022-08-19T05:43:16;22.80;1.00
9527;DHT22;4802;51.494;6.770;2022-08-19T05:45:45;23.50;1.00
9527;DHT22;4802;51.494;6.770;2022-08-19T05:48:14;24.00;1.00
9527;DHT22;4802;51.494;6.770;2022-08-19T05:50:46;24.50;1.00
9527;DHT22;4802;51.494;6.770;2022-08-19T05:53:17;25.10;1.00
9527;DHT22;4802;51.494;6.770;2022-08-19T05:55:46;25.40;1.00
9527;DHT22;4802;51.494;6.770;2022-08-19T05:58:17;25.40;1.00
9527;DHT22;4802;51.494;6.770;2022-08-19T06:00:49;25.00;1.00
9527;DHT22;4802;51.494;6.770;2022-08-19T06:03:18;25.10;1.00
9527;DHT22;4802;51.494;6.770;2022-08-19T06:06:00;25.20;1.00
9527;DHT22;4802;51.494;6.770;2022-08-19T06:08:29;25.30;1.00
9527;DHT22;4802;51.494;6.770;2022-08-19T06:11:17;25.50;1.00
9527;DHT22;4802;51.494;6.770;2022-08-19T06:13:48;26.30;1.00
9527;DHT22;4802;51.494;6.770;2022-08-19T06:16:25;26.80;1.00
9527;DHT22;4802;51.494;6.770;2022-08-19T06:18:55;27.20;1.00
9527;DHT22;4802;51.494;6.770;2022-08-19T06:21:28;27.60;1.00
9527;DHT22;4802;51.494;6.770;2022-08-19T06:23:58;28.30;1.00
9527;DHT22;4802;51.494;6.770;2022-08-19T06:26:28;28.50;1.00
9527;DHT22;4802;51.494;6.770;2022-08-19T06:28:57;28.70;1.00
9527;DHT22;4802;51.494;6.770;2022-08-19T06:31:28;28.80;1.00
9527;DHT22;4802;51.494;6.770;2022-08-19T06:33:58;29.30;1.00
9527;DHT22;4802;51.494;6.770;2022-08-19T06:36:33;29.70;1.00
9527;DHT22;4802;51.494;6.770;2022-08-19T06:39:04;29.90;1.00
9527;DHT22;4802;51.494;6.770;2022-08-19T06:41:35;30.10;1.00
9527;DHT22;4802;51.494;6.770;2022-08-19T06:44:13;30.40;1.00
9527;DHT22;4802;51.494;6.770;2022-08-19T06:46:43;30.60;1.00
9527;DHT22;4802;51.494;6.770;2022-08-19T06:49:22;31.10;1.00
9527;DHT22;4802;51.494;6.770;2022-08-19T06:51:53;31.10;1.00
9527;DHT22;4802;51.494;6.770;2022-08-19T06:54:25;31.20;1.00
9527;DHT22;4802;51.494;6.770;2022-08-19T06:56:59;31.20;1.00
9527;DHT22;4802;51.494;6.770;2022-08-19T06:59:31;31.10;1.00
9527;DHT22;4802;51.494;6.770;2022-08-19T07:02:03;31.10;1.00
9527;DHT22;4802;51.494;6.770;2022-08-19T07:04:35;31.50;1.00
9527;DHT22;4802;51.494;6.770;2022-08-19T07:07:13;31.90;1.00
9527;DHT22;4802;51.494;6.770;2022-08-19T07:09:48;31.50;1.00
9527;DHT22;4802;51.494;6.770;2022-08-19T07:12:29;31.40;1.00
9527;DHT22;4802;51.494;6.770;2022-08-19T07:15:05;31.80;1.00
9527;DHT22;4802;51.494;6.770;2022-08-19T07:17:36;32.00;1.00
9527;DHT22;4802;51.494;6.770;2022-08-19T07:20:09;32.40;1.00
9527;DHT22;4802;51.494;6.770;2022-08-19T07:22:39;32.80;1.00
9527;DHT22;4802;51.494;6.770;2022-08-19T07:25:09;33.30;1.00
9527;DHT22;4802;51.494;6.770;2022-08-19T07:27:40;33.40;1.00
9527;DHT22;4802;51.494;6.770;2022-08-19T07:30:20;33.40;1.00
9527;DHT22;4802;51.494;6.770;2022-08-19T07:32:53;33.60;1.00
9527;DHT22;4802;51.494;6.770;2022-08-19T07:35:23;33.50;1.00
9527;DHT22;4802;51.494;6.770;2022-08-19T07:37:54;33.80;1.00
9527;DHT22;4802;51.494;6.770;2022-08-19T07:40:23;33.90;1.00
9527;DHT22;4802;51.494;6.770;2022-08-19T07:42:52;34.60;1.00
9527;DHT22;4802;51.494;6.770;2022-08-19T07:45:21;34.60;1.00
9527;DHT22;4802;51.494;6.770;2022-08-19T07:47:50;34.70;1.00
9527;DHT22;4802;51.494;6.770;2022-08-19T07:50:21;34.70;1.00
9527;DHT22;4802;51.494;6.770;2022-08-19T07:52:50;34.80;1.00
9527;DHT22;4802;51.494;6.770;2022-08-19T07:55:23;35.30;1.00
9527;DHT22;4802;51.494;6.770;2022-08-19T07:58:10;35.60;1.00
9527;DHT22;4802;51.494;6.770;2022-08-19T08:00:40;35.60;1.00
9527;DHT22;4802;51.494;6.770;2022-08-19T08:03:09;35.40;1.00
9527;DHT22;4802;51.494;6.770;2022-08-19T08:05:38;35.30;1.00
9527;DHT22;4802;51.494;6.770;2022-08-19T08:11:34;33.90;1.00
9527;DHT22;4802;51.494;6.770;2022-08-19T08:14:04;32.80;1.00
9527;DHT22;4802;51.494;6.770;2022-08-19T08:22:26;34.30;1.00
9527;DHT22;4802;51.494;6.770;2022-08-19T08:25:15;35.20;1.00
9527;DHT22;4802;51.494;6.770;2022-08-19T08:27:48;36.00;1.00
9527;DHT22;4802;51.494;6.770;2022-08-19T08:30:23;36.40;1.00
9527;DHT22;4802;51.494;6.770;2022-08-19T08:32:58;36.80;1.00
9527;DHT22;4802;51.494;6.770;2022-08-19T08:35:29;35.90;1.00
9527;DHT22;4802;51.494;6.770;2022-08-19T08:37:58;34.70;1.00
9527;DHT22;4802;51.494;6.770;2022-08-19T08:40:30;33.70;1.00
9527;DHT22;4802;51.494;6.770;2022-08-19T08:43:07;32.50;1.00
9527;DHT22;4802;51.494;6.770;2022-08-19T08:45:56;31.70;1.00
9527;DHT22;4802;51.494;6.770;2022-08-19T08:48:36;31.00;1.00
9527;DHT22;4802;51.494;6.770;2022-08-19T08:51:11;31.10;1.00
9527;DHT22;4802;51.494;6.770;2022-08-19T08:53:47;30.90;1.00
9527;DHT22;4802;51.494;6.770;2022-08-19T08:56:22;30.90;1.00
9527;DHT22;4802;51.494;6.770;2022-08-19T08:58:59;31.20;1.00
9527;DHT22;4802;51.494;6.770;2022-08-19T09:01:34;31.30;1.00
9527;DHT22;4802;51.494;6.770;2022-08-19T09:04:07;31.00;1.00
9527;DHT22;4802;51.494;6.770;2022-08-19T09:06:40;30.80;1.00
9527;DHT22;4802;51.494;6.770;2022-08-19T09:09:20;30.40;1.00
9527;DHT22;4802;51.494;6.770;2022-08-19T09:11:59;29.90;1.00
9527;DHT22;4802;51.494;6.770;2022-08-19T09:14:43;30.10;1.00
9527;DHT22;4802;51.494;6.770;2022-08-19T09:17:20;30.20;1.00
9527;DHT22;4802;51.494;6.770;2022-08-19T09:20:00;30.90;1.00
9527;DHT22;4802;51.494;6.770;2022-08-19T09:22:35;31.70;1.00
9527;DHT22;4802;51.494;6.770;2022-08-19T09:25:06;32.30;1.00
9527;DHT22;4802;51.494;6.770;2022-08-19T09:27:37;32.90;1.00
9527;DHT22;4802;51.494;6.770;2022-08-19T09:30:25;33.00;1.00
9527;DHT22;4802;51.494;6.770;2022-08-19T09:32:58;33.20;1.00
9527;DHT22;4802;51.494;6.770;2022-08-19T09:35:28;32.80;1.00
9527;DHT22;4802;51.494;6.770;2022-08-19T09:38:16;32.40;1.00
9527;DHT22;4802;51.494;6.770;2022-08-19T09:40:45;31.60;1.00
9527;DHT22;4802;51.494;6.770;2022-08-19T09:43:14;31.10;1.00
9527;DHT22;4802;51.494;6.770;2022-08-19T09:46:01;30.40;1.00
9527;DHT22;4802;51.494;6.770;2022-08-19T09:48:31;29.80;1.00
9527;DHT22;4802;51.494;6.770;2022-08-19T09:51:04;29.70;1.00
9527;DHT22;4802;51.494;6.770;2022-08-19T09:53:38;30.10;1.00
9527;DHT22;4802;51.494;6.770;2022-08-19T09:56:07;30.10;1.00
9527;DHT22;4802;51.494;6.770;2022-08-19T09:58:38;29.60;1.00
9527;DHT22;4802;51.494;6.770;2022-08-19T10:01:14;29.40;1.00
9527;DHT22;4802;51.494;6.770;2022-08-19T10:03:47;29.30;1.00
9527;DHT22;4802;51.494;6.770;2022-08-19T10:06:17;29.10;1.00
9527;DHT22;4802;51.494;6.770;2022-08-19T10:09:08;29.20;1.00
9527;DHT22;4802;51.494;6.770;2022-08-19T10:11:41;29.40;1.00
9527;DHT22;4802;51.494;6.770;2022-08-19T10:14:20;29.80;1.00
9527;DHT22;4802;51.494;6.770;2022-08-19T10:16:52;30.10;1.00
9527;DHT22;4802;51.494;6.770;2022-08-19T10:19:21;30.50;1.00
9527;DHT22;4802;51.494;6.770;2022-08-19T10:21:52;30.60;1.00
9527;DHT22;4802;51.494;6.770;2022-08-19T10:24:26;31.10;1.00
9527;DHT22;4802;51.494;6.770;2022-08-19T10:26:56;31.30;1.00
9527;DHT22;4802;51.494;6.770;2022-08-19T10:29:26;31.10;1.00
9527;DHT22;4802;51.494;6.770;2022-08-19T10:32:01;30.90;1.00
9527;DHT22;4802;51.494;6.770;2022-08-19T10:34:36;31.60;1.00
9527;DHT22;4802;51.494;6.770;2022-08-19T10:37:16;31.90;1.00
9527;DHT22;4802;51.494;6.770;2022-08-19T10:39:57;32.20;1.00
9527;DHT22;4802;51.494;6.770;2022-08-19T10:42:27;31.80;1.00
9527;DHT22;4802;51.494;6.770;2022-08-19T10:45:01;31.60;1.00
9527;DHT22;4802;51.494;6.770;2022-08-19T10:47:45;31.20;1.00
9527;DHT22;4802;51.494;6.770;2022-08-19T10:50:15;31.40;1.00
9527;DHT22;4802;51.494;6.770;2022-08-19T10:53:04;31.80;1.00
9527;DHT22;4802;51.494;6.770;2022-08-19T10:55:36;32.50;1.00
9527;DHT22;4802;51.494;6.770;2022-08-19T10:58:22;32.60;1.00
9527;DHT22;4802;51.494;6.770;2022-08-19T11:00:53;32.50;1.00
9527;DHT22;4802;51.494;6.770;2022-08-19T11:03:27;32.30;1.00
9527;DHT22;4802;51.494;6.770;2022-08-19T11:06:00;32.10;1.00
9527;DHT22;4802;51.494;6.770;2022-08-19T11:08:31;32.50;1.00
9527;DHT22;4802;51.494;6.770;2022-08-19T11:11:02;32.40;1.00
9527;DHT22;4802;51.494;6.770;2022-08-19T11:13:35;32.30;1.00
9527;DHT22;4802;51.494;6.770;2022-08-19T11:16:11;31.80;1.00
9527;DHT22;4802;51.494;6.770;2022-08-19T11:18:46;32.00;1.00
9527;DHT22;4802;51.494;6.770;2022-08-19T11:21:18;32.00;1.00
9527;DHT22;4802;51.494;6.770;2022-08-19T11:23:50;32.40;1.00
9527;DHT22;4802;51.494;6.770;2022-08-19T11:26:21;32.50;1.00
9527;DHT22;4802;51.494;6.770;2022-08-19T11:28:52;32.50;1.00
9527;DHT22;4802;51.494;6.770;2022-08-19T11:31:25;32.10;1.00
9527;DHT22;4802;51.494;6.770;2022-08-19T11:33:58;31.70;1.00
9527;DHT22;4802;51.494;6.770;2022-08-19T11:36:37;31.70;1.00
9527;DHT22;4802;51.494;6.770;2022-08-19T11:39:15;31.50;1.00
9527;DHT22;4802;51.494;6.770;2022-08-19T11:41:47;31.60;1.00
9527;DHT22;4802;51.494;6.770;2022-08-19T11:44:17;31.90;1.00
9527;DHT22;4802;51.494;6.770;2022-08-19T11:46:46;31.80;1.00
9527;DHT22;4802;51.494;6.770;2022-08-19T11:49:20;31.80;1.00
9527;DHT22;4802;51.494;6.770;2022-08-19T11:51:55;31.60;1.00
9527;DHT22;4802;51.494;6.770;2022-08-19T11:54:28;31.50;99.90
9527;DHT22;4802;51.494;6.770;2022-08-19T11:57:03;31.60;1.00
9527;DHT22;4802;51.494;6.770;2022-08-19T11:59:53;32.60;1.00
9527;DHT22;4802;51.494;6.770;2022-08-19T12:02:23;32.50;1.00
9527;DHT22;4802;51.494;6.770;2022-08-19T12:04:58;32.40;1.00
9527;DHT22;4802;51.494;6.770;2022-08-19T12:07:37;32.20;1.00
9527;DHT22;4802;51.494;6.770;2022-08-19T12:10:21;31.50;99.90
9527;DHT22;4802;51.494;6.770;2022-08-19T12:12:56;32.20;1.00
9527;DHT22;4802;51.494;6.770;2022-08-19T12:15:27;32.40;1.00
9527;DHT22;4802;51.494;6.770;2022-08-19T12:18:04;32.30;1.00
9527;DHT22;4802;51.494;6.770;2022-08-19T12:20:37;32.40;1.00
9527;DHT22;4802;51.494;6.770;2022-08-19T12:23:09;32.20;99.90
9527;DHT22;4802;51.494;6.770;2022-08-19T12:25:44;32.50;1.00
9527;DHT22;4802;51.494;6.770;2022-08-19T12:28:20;32.70;1.00
9527;DHT22;4802;51.494;6.770;2022-08-19T12:30:49;32.40;99.90
9527;DHT22;4802;51.494;6.770;2022-08-19T12:33:20;31.60;99.90
9527;DHT22;4802;51.494;6.770;2022-08-19T12:36:00;31.40;99.90
9527;DHT22;4802;51.494;6.770;2022-08-19T12:38:32;31.40;99.90
9527;DHT22;4802;51.494;6.770;2022-08-19T12:41:02;31.70;99.90
9527;DHT22;4802;51.494;6.770;2022-08-19T12:43:32;31.80;99.90
9527;DHT22;4802;51.494;6.770;2022-08-19T12:46:04;32.00;99.90
9527;DHT22;4802;51.494;6.770;2022-08-19T12:48:37;32.00;99.90
9527;DHT22;4802;51.494;6.770;2022-08-19T12:51:12;32.00;99.90
9527;DHT22;4802;51.494;6.770;2022-08-19T12:53:43;31.90;99.90
9527;DHT22;4802;51.494;6.770;2022-08-19T12:56:14;31.80;99.90
9527;DHT22;4802;51.494;6.770;2022-08-19T12:58:49;31.80;99.90
9527;DHT22;4802;51.494;6.770;2022-08-19T13:01:20;31.40;99.90
9527;DHT22;4802;51.494;6.770;2022-08-19T13:03:50;31.50;99.90
9527;DHT22;4802;51.494;6.770;2022-08-19T13:06:23;31.30;99.90
9527;DHT22;4802;51.494;6.770;2022-08-19T13:08:52;31.10;99.90
9527;DHT22;4802;51.494;6.770;2022-08-19T13:11:25;31.00;99.90
9527;DHT22;4802;51.494;6.770;2022-08-19T13:14:00;30.90;99.90
9527;DHT22;4802;51.494;6.770;2022-08-19T13:16:36;30.80;99.90
9527;DHT22;4802;51.494;6.770;2022-08-19T13:19:10;30.80;99.90
9527;DHT22;4802;51.494;6.770;2022-08-19T13:21:42;30.80;99.90
9527;DHT22;4802;51.494;6.770;2022-08-19T13:24:41;31.00;99.90
9527;DHT22;4802;51.494;6.770;2022-08-19T13:27:13;31.00;99.90
9527;DHT22;4802;51.494;6.770;2022-08-19T13:29:43;31.00;99.90
9527;DHT22;4802;51.494;6.770;2022-08-19T13:32:30;31.00;99.90
9527;DHT22;4802;51.494;6.770;2022-08-19T13:35:17;30.80;99.90
9527;DHT22;4802;51.494;6.770;2022-08-19T13:37:50;30.80;99.90
9527;DHT22;4802;51.494;6.770;2022-08-19T13:40:21;30.50;99.90
9527;DHT22;4802;51.494;6.770;2022-08-19T13:42:53;30.50;99.90
9527;DHT22;4802;51.494;6.770;2022-08-19T13:45:25;30.40;99.90
9527;DHT22;4802;51.494;6.770;2022-08-19T13:47:56;30.50;99.90
9527;DHT22;4802;51.494;6.770;2022-08-19T13:50:29;30.40;99.90
9527;DHT22;4802;51.494;6.770;2022-08-19T13:53:02;30.50;99.90
9527;DHT22;4802;51.494;6.770;2022-08-19T13:55:32;30.40;99.90
9527;DHT22;4802;51.494;6.770;2022-08-19T13:58:02;30.20;99.90
9527;DHT22;4802;51.494;6.770;2022-08-19T14:00:34;30.20;99.90
9527;DHT22;4802;51.494;6.770;2022-08-19T14:03:07;30.10;99.90
9527;DHT22;4802;51.494;6.770;2022-08-19T14:05:36;30.00;99.90
9527;DHT22;4802;51.494;6.770;2022-08-19T14:08:08;30.10;99.90
9527;DHT22;4802;51.494;6.770;2022-08-19T14:10:38;29.80;99.90
9527;DHT22;4802;51.494;6.770;2022-08-19T14:13:09;29.60;99.90
9527;DHT22;4802;51.494;6.770;2022-08-19T14:15:39;29.50;99.90
9527;DHT22;4802;51.494;6.770;2022-08-19T14:18:09;29.40;99.90
9527;DHT22;4802;51.494;6.770;2022-08-19T14:20:38;29.30;99.90
9527;DHT22;4802;51.494;6.770;2022-08-19T14:23:09;29.30;99.90
9527;DHT22;4802;51.494;6.770;2022-08-19T14:25:39;29.30;99.90
9527;DHT22;4802;51.494;6.770;2022-08-19T14:28:09;29.20;99.90
9527;DHT22;4802;51.494;6.770;2022-08-19T14:30:39;29.30;99.90
9527;DHT22;4802;51.494;6.770;2022-08-19T14:33:12;29.20;99.90
9527;DHT22;4802;51.494;6.770;2022-08-19T14:35:44;29.20;99.90
9527;DHT22;4802;51.494;6.770;2022-08-19T14:38:17;29.10;99.90
9527;DHT22;4802;51.494;6.770;2022-08-19T14:41:10;29.10;99.90
9527;DHT22;4802;51.494;6.770;2022-08-19T14:43:40;29.00;99.90
9527;DHT22;4802;51.494;6.770;2022-08-19T14:46:18;29.00;99.90
9527;DHT22;4802;51.494;6.770;2022-08-19T14:48:51;29.00;99.90
9527;DHT22;4802;51.494;6.770;2022-08-19T14:51:35;29.00;99.90
9527;DHT22;4802;51.494;6.770;2022-08-19T14:54:08;28.90;99.90
9527;DHT22;4802;51.494;6.770;2022-08-19T14:56:40;28.70;99.90
9527;DHT22;4802;51.494;6.770;2022-08-19T14:59:11;28.80;99.90
9527;DHT22;4802;51.494;6.770;2022-08-19T15:01:40;28.70;99.90
9527;DHT22;4802;51.494;6.770;2022-08-19T15:04:10;28.70;99.90
9527;DHT22;4802;51.494;6.770;2022-08-19T15:06:40;28.50;99.90
9527;DHT22;4802;51.494;6.770;2022-08-19T15:09:13;28.60;99.90
9527;DHT22;4802;51.494;6.770;2022-08-19T15:11:43;28.60;99.90
9527;DHT22;4802;51.494;6.770;2022-08-19T15:14:13;28.50;99.90
9527;DHT22;4802;51.494;6.770;2022-08-19T15:16:42;28.40;99.90
9527;DHT22;4802;51.494;6.770;2022-08-19T15:19:12;28.40;99.90
9527;DHT22;4802;51.494;6.770;2022-08-19T15:21:42;28.50;99.90
9527;DHT22;4802;51.494;6.770;2022-08-19T15:24:13;28.50;99.90
9527;DHT22;4802;51.494;6.770;2022-08-19T15:26:44;28.50;99.90
9527;DHT22;4802;51.494;6.770;2022-08-19T15:29:15;28.50;99.90
9527;DHT22;4802;51.494;6.770;2022-08-19T15:31:45;28.50;99.90
9527;DHT22;4802;51.494;6.770;2022-08-19T15:34:16;28.50;99.90
9527;DHT22;4802;51.494;6.770;2022-08-19T15:36:49;28.50;99.90
9527;DHT22;4802;51.494;6.770;2022-08-19T15:39:25;28.30;99.90
9527;DHT22;4802;51.494;6.770;2022-08-19T15:41:56;28.40;99.90
9527;DHT22;4802;51.494;6.770;2022-08-19T15:44:33;28.30;99.90
9527;DHT22;4802;51.494;6.770;2022-08-19T15:47:29;28.30;99.90
9527;DHT22;4802;51.494;6.770;2022-08-19T15:50:06;28.30;99.90
9527;DHT22;4802;51.494;6.770;2022-08-19T15:52:43;28.30;99.90
9527;DHT22;4802;51.494;6.770;2022-08-19T15:55:17;28.30;99.90
9527;DHT22;4802;51.494;6.770;2022-08-19T15:58:02;28.30;99.90
9527;DHT22;4802;51.494;6.770;2022-08-19T16:00:56;28.20;99.90
9527;DHT22;4802;51.494;6.770;2022-08-19T16:03:46;28.00;99.90
9527;DHT22;4802;51.494;6.770;2022-08-19T16:06:43;28.00;99.90
9527;DHT22;4802;51.494;6.770;2022-08-19T16:09:14;27.80;99.90
9527;DHT22;4802;51.494;6.770;2022-08-19T16:11:46;27.90;99.90
9527;DHT22;4802;51.494;6.770;2022-08-19T16:14:23;27.80;99.90
9527;DHT22;4802;51.494;6.770;2022-08-19T16:16:53;27.70;99.90
9527;DHT22;4802;51.494;6.770;2022-08-19T16:19:23;27.80;99.90
9527;DHT22;4802;51.494;6.770;2022-08-19T16:21:55;27.80;99.90
9527;DHT22;4802;51.494;6.770;2022-08-19T16:24:27;28.10;99.90
9527;DHT22;4802;51.494;6.770;2022-08-19T16:27:01;28.10;99.90
9527;DHT22;4802;51.494;6.770;2022-08-19T16:29:31;28.00;99.90
9527;DHT22;4802;51.494;6.770;2022-08-19T16:32:08;28.20;99.90
9527;DHT22;4802;51.494;6.770;2022-08-19T16:34:39;28.30;99.90
9527;DHT22;4802;51.494;6.770;2022-08-19T16:37:09;28.40;99.90
9527;DHT22;4802;51.494;6.770;2022-08-19T16:39:39;28.30;99.90
9527;DHT22;4802;51.494;6.770;2022-08-19T16:42:13;28.20;99.90
9527;DHT22;4802;51.494;6.770;2022-08-19T16:44:44;28.20;99.90
9527;DHT22;4802;51.494;6.770;2022-08-19T16:47:15;28.10;99.90
9527;DHT22;4802;51.494;6.770;2022-08-19T16:49:54;28.10;99.90
9527;DHT22;4802;51.494;6.770;2022-08-19T16:52:39;28.10;99.90
9527;DHT22;4802;51.494;6.770;2022-08-19T16:55:23;28.00;99.90
9527;DHT22;4802;51.494;6.770;2022-08-19T16:57:56;27.90;99.90
9527;DHT22;4802;51.494;6.770;2022-08-19T17:00:34;27.80;99.90
9527;DHT22;4802;51.494;6.770;2022-08-19T17:03:05;27.90;99.90